createdAt,value
2023-03-06T00:07:58.131Z,4.88
2023-03-06T00:18:05.162Z,4.93
2023-03-06T00:28:08.744Z,4.98
2023-03-06T00:38:14.311Z,4.92
2023-03-06T00:48:17.906Z,4.99
2023-03-06T00:58:22.967Z,4.95
2023-03-06T01:08:26.758Z,4.89
2023-03-06T01:18:31.736Z,4.89
2023-03-06T01:28:37.445Z,4.86
2023-03-06T01:38:42.566Z,4.86
2023-03-06T01:48:47.837Z,5.04
2023-03-06T01:58:53.383Z,5.55
2023-03-06T02:08:57.492Z,5.35
2023-03-06T02:19:05.670Z,5.03
2023-03-06T02:29:11.008Z,4.91
2023-03-06T02:39:16.031Z,4.84
2023-03-06T02:49:21.263Z,4.86
2023-03-06T02:59:25.992Z,4.64
2023-03-06T03:09:36.672Z,4.80
2023-03-06T03:19:40.390Z,4.65
2023-03-06T03:29:45.344Z,4.72
2023-03-06T03:39:49.069Z,4.52
2023-03-06T03:49:54.038Z,4.54
2023-03-06T03:59:57.947Z,4.52
2023-03-06T04:10:02.921Z,4.44
2023-03-06T04:20:08.083Z,4.46
2023-03-06T04:30:14.419Z,4.45
2023-03-06T04:40:21.514Z,4.45
2023-03-06T04:50:32.345Z,4.52
2023-03-06T05:00:36.006Z,4.44
2023-03-06T05:10:40.930Z,4.47
2023-03-06T05:20:44.981Z,4.49
2023-03-06T05:30:50.361Z,4.55
2023-03-06T05:40:54.313Z,4.50
2023-03-06T05:51:03.254Z,4.53
2023-03-06T06:01:11.726Z,4.47
2023-03-06T06:11:18.232Z,4.55
2023-03-06T06:21:22.019Z,4.47
2023-03-06T06:31:26.975Z,4.61
2023-03-06T06:41:50.622Z,4.76
2023-03-06T06:51:56.615Z,5.17
2023-03-06T07:02:00.266Z,4.99
2023-03-06T07:12:05.978Z,5.07
2023-03-06T07:22:09.745Z,5.15
2023-03-06T07:32:14.810Z,5.36
2023-03-06T07:42:18.522Z,5.61
2023-03-06T07:52:23.878Z,5.81
2023-03-06T08:02:27.824Z,6.27
2023-03-06T08:12:33.024Z,6.13
2023-03-06T08:22:36.953Z,6.59
2023-03-06T08:32:42.229Z,7.15
2023-03-06T08:42:46.767Z,7.12
2023-03-06T08:52:51.769Z,7.21
2023-03-06T09:02:55.479Z,7.45
2023-03-06T09:13:00.752Z,7.16
2023-03-06T09:23:04.609Z,7.14
2023-03-06T09:33:09.894Z,6.53
2023-03-06T09:43:22.135Z,6.46
2023-03-06T09:54:00.321Z,6.77
2023-03-06T10:04:13.120Z,7.29
2023-03-06T10:14:28.204Z,7.31
2023-03-06T10:24:50.388Z,7.53
2023-03-06T10:35:00.606Z,7.57
2023-03-06T10:45:14.696Z,7.70
2023-03-06T10:55:31.034Z,7.99
2023-03-06T11:05:34.994Z,7.92
2023-03-06T11:15:39.954Z,8.66
2023-03-06T11:25:50.375Z,7.94
2023-03-06T11:36:05.380Z,7.44
2023-03-06T11:46:17.417Z,7.58
2023-03-06T11:56:32.840Z,7.85
2023-03-06T12:06:47.009Z,7.97
2023-03-06T12:17:13.435Z,8.47
2023-03-06T12:27:27.397Z,8.72
2023-03-06T12:37:48.180Z,8.67
2023-03-06T12:47:56.542Z,9.67
2023-03-06T12:58:45.848Z,10.02
2023-03-06T13:09:20.800Z,10.38
2023-03-06T13:19:28.120Z,9.91
2023-03-06T13:30:23.239Z,9.45
2023-03-06T13:40:37.165Z,9.22
2023-03-06T13:50:43.514Z,9.51
2023-03-06T14:01:08.134Z,9.43
2023-03-06T14:11:21.344Z,8.82
2023-03-06T14:21:31.929Z,8.67
2023-03-06T14:31:39.400Z,8.11
2023-03-06T14:41:44.805Z,7.89
2023-03-06T14:51:56.643Z,7.91
2023-03-06T15:02:05.104Z,8.09
2023-03-06T15:12:34.778Z,8.18
2023-03-06T15:22:42.019Z,8.05
2023-03-06T15:32:45.719Z,7.87
2023-03-06T15:42:51.256Z,7.77
2023-03-06T15:52:55.590Z,7.62
2023-03-06T16:03:01.343Z,7.42
2023-03-06T16:13:09.511Z,7.35
2023-03-06T16:23:16.037Z,7.26
2023-03-06T16:33:19.666Z,7.15
2023-03-06T16:43:27.667Z,7.26
2023-03-06T16:53:31.331Z,7.04
2023-03-06T17:03:37.048Z,7.08
2023-03-06T17:13:41.192Z,6.84
2023-03-06T17:23:46.405Z,6.78
2023-03-06T17:33:51.447Z,6.58
2023-03-06T17:43:58.840Z,6.56
2023-03-06T17:54:02.623Z,6.43
2023-03-06T18:04:07.841Z,6.20
2023-03-06T18:14:11.607Z,6.02
2023-03-06T18:24:16.760Z,5.85
2023-03-06T18:34:20.574Z,5.97
2023-03-06T18:44:25.701Z,5.90
2023-03-06T18:54:29.745Z,5.90
2023-03-06T19:04:37.210Z,5.70
2023-03-06T19:14:40.837Z,5.61
2023-03-06T19:24:46.784Z,5.41
2023-03-06T19:34:50.524Z,5.28
2023-03-06T19:44:56.359Z,4.90
2023-03-06T19:55:00.324Z,4.85
2023-03-06T20:05:09.183Z,4.62
2023-03-06T20:15:13.398Z,4.60
2023-03-06T20:25:19.103Z,4.48
2023-03-06T20:35:23.029Z,4.47
2023-03-06T20:45:28.139Z,4.38
2023-03-06T20:55:33.024Z,4.11
2023-03-06T21:05:38.165Z,4.06
2023-03-06T21:15:42.938Z,4.00
2023-03-06T21:25:53.815Z,3.93
2023-03-06T21:36:00.176Z,3.98
2023-03-06T21:46:06.368Z,3.91
2023-03-06T21:56:10.852Z,3.90
2023-03-06T22:06:19.260Z,3.92
2023-03-06T22:16:23.629Z,4.01
2023-03-06T22:26:32.272Z,4.00
2023-03-06T22:36:35.994Z,4.11
2023-03-06T22:46:41.706Z,4.11
2023-03-06T22:56:45.385Z,4.26
2023-03-06T23:06:50.351Z,4.27
2023-03-06T23:16:54.025Z,4.28
2023-03-06T23:26:59.243Z,4.37
2023-03-06T23:37:03.039Z,4.33
2023-03-06T23:47:08.217Z,4.52
2023-03-06T23:57:11.844Z,4.42
